createdAt,value
2024-03-05T00:00:11.350Z,353.20
2024-03-05T00:02:42.730Z,317.85
2024-03-05T00:05:10.100Z,445.15
2024-03-05T00:07:39.240Z,341.75
2024-03-05T00:10:06.629Z,230.02
2024-03-05T00:12:34.576Z,271.73
2024-03-05T00:15:01.555Z,217.80
2024-03-05T00:17:28.058Z,329.40
2024-03-05T00:19:54.998Z,406.75
2024-03-05T00:22:21.740Z,423.60
2024-03-05T00:24:48.277Z,306.30
2024-03-05T00:27:17.963Z,425.95
2024-03-05T00:29:44.464Z,492.33
2024-03-05T00:32:11.029Z,608.30
2024-03-05T00:34:37.586Z,319.27
2024-03-05T00:37:04.044Z,319.57
2024-03-05T00:39:30.496Z,284.52
2024-03-05T00:41:56.949Z,481.48
2024-03-05T00:44:23.453Z,528.67
2024-03-05T00:46:50.026Z,321.73
2024-03-05T00:49:16.606Z,386.53
2024-03-05T00:51:43.086Z,493.15
2024-03-05T00:54:11.026Z,375.92
2024-03-05T00:56:38.350Z,256.20
2024-03-05T00:59:04.841Z,349.15
2024-03-05T01:01:31.462Z,375.37
2024-03-05T01:03:59.212Z,322.88
2024-03-05T01:06:25.678Z,234.13
2024-03-05T01:08:52.175Z,317.35
2024-03-05T01:11:18.972Z,253.38
2024-03-05T01:13:45.505Z,250.57
2024-03-05T01:16:12.174Z,264.00
2024-03-05T01:18:38.781Z,296.27
2024-03-05T01:21:07.241Z,250.90
2024-03-05T01:23:34.421Z,216.23
2024-03-05T01:26:01.369Z,204.70
2024-03-05T01:28:31.026Z,199.23
2024-03-05T01:31:00.028Z,209.73
2024-03-05T01:33:26.832Z,223.23
2024-03-05T01:35:54.048Z,260.52
2024-03-05T01:38:21.900Z,314.77
2024-03-05T01:40:48.594Z,324.33
2024-03-05T01:43:16.396Z,249.02
2024-03-05T01:45:44.021Z,221.85
2024-03-05T01:48:13.082Z,202.07
2024-03-05T01:50:39.835Z,189.03
2024-03-05T01:53:10.530Z,208.38
2024-03-05T01:55:40.113Z,248.93
2024-03-05T01:58:10.227Z,196.50
2024-03-05T02:00:37.831Z,190.98
2024-03-05T02:03:06.143Z,230.27
2024-03-05T02:05:33.960Z,200.82
2024-03-05T02:08:03.038Z,219.00
2024-03-05T02:10:30.039Z,170.02
2024-03-05T02:12:56.558Z,205.93
2024-03-05T02:15:23.044Z,174.57
2024-03-05T02:17:49.855Z,175.02
2024-03-05T02:20:16.505Z,185.07
2024-03-05T02:22:43.513Z,180.55
2024-03-05T02:25:11.270Z,167.57
2024-03-05T02:27:39.327Z,157.93
2024-03-05T02:30:11.836Z,144.00
2024-03-05T02:32:43.054Z,157.90
2024-03-05T02:35:10.632Z,147.55
2024-03-05T02:37:41.237Z,166.43
2024-03-05T02:40:09.700Z,151.33
2024-03-05T02:42:41.223Z,155.15
2024-03-05T02:45:08.738Z,154.88
2024-03-05T02:47:37.327Z,151.70
2024-03-05T02:50:04.838Z,143.93
2024-03-05T02:52:32.265Z,150.07
2024-03-05T02:54:59.264Z,172.02
2024-03-05T02:57:26.119Z,158.00
2024-03-05T02:59:52.857Z,157.27
2024-03-05T03:02:21.381Z,131.48
2024-03-05T03:04:48.840Z,142.33
2024-03-05T03:07:15.419Z,159.13
2024-03-05T03:09:46.196Z,153.73
2024-03-05T03:12:12.688Z,153.35
2024-03-05T03:14:44.602Z,152.18
2024-03-05T03:17:11.712Z,153.77
2024-03-05T03:19:38.199Z,152.98
2024-03-05T03:22:05.370Z,138.40
2024-03-05T03:24:31.829Z,140.30
2024-03-05T03:26:58.338Z,148.07
2024-03-05T03:29:24.822Z,143.03
2024-03-05T03:31:51.328Z,133.85
2024-03-05T03:34:18.007Z,138.48
2024-03-05T03:36:45.289Z,135.68
2024-03-05T03:39:24.867Z,147.40
2024-03-05T03:41:55.953Z,140.47
2024-03-05T03:44:23.470Z,135.82
2024-03-05T03:46:50.564Z,152.13
2024-03-05T03:49:21.498Z,135.63
2024-03-05T03:51:48.643Z,157.45
2024-03-05T03:54:15.157Z,141.23
2024-03-05T03:56:41.863Z,158.00
2024-03-05T03:59:08.863Z,139.52
2024-03-05T04:01:36.256Z,141.80
2024-03-05T04:04:03.954Z,134.88
2024-03-05T04:06:31.923Z,134.10
2024-03-05T04:08:58.532Z,154.90
2024-03-05T04:11:25.015Z,139.40
2024-03-05T04:13:51.620Z,149.77
2024-03-05T04:16:18.137Z,129.70
2024-03-05T04:18:46.796Z,133.23
2024-03-05T04:21:13.791Z,133.77
2024-03-05T04:23:40.983Z,136.27
2024-03-05T04:26:14.418Z,162.35
2024-03-05T04:28:49.915Z,131.60
2024-03-05T04:31:18.629Z,141.70
2024-03-05T04:33:49.051Z,151.18
2024-03-05T04:36:16.380Z,152.70
2024-03-05T04:38:44.573Z,153.40
2024-03-05T04:41:12.326Z,154.60
2024-03-05T04:43:44.845Z,137.73
2024-03-05T04:46:14.516Z,140.35
2024-03-05T04:48:40.980Z,144.57
2024-03-05T04:51:09.670Z,149.05
2024-03-05T04:53:37.290Z,152.18
2024-03-05T04:56:04.519Z,156.80
2024-03-05T04:58:31.130Z,137.80
2024-03-05T05:00:57.774Z,147.10
2024-03-05T05:03:24.686Z,151.00
2024-03-05T05:05:51.329Z,154.00
2024-03-05T05:08:20.323Z,132.10
2024-03-05T05:10:48.962Z,138.20
2024-03-05T05:13:15.501Z,138.30
2024-03-05T05:15:42.106Z,140.60
2024-03-05T05:18:08.922Z,129.70
2024-03-05T05:20:35.475Z,128.57
2024-03-05T05:23:01.967Z,125.72
2024-03-05T05:25:29.398Z,133.52
2024-03-05T05:27:55.895Z,131.55
2024-03-05T05:30:24.529Z,124.30
2024-03-05T05:32:51.127Z,135.93
2024-03-05T05:35:18.231Z,121.45
2024-03-05T05:37:45.790Z,129.95
2024-03-05T05:40:14.950Z,107.72
2024-03-05T05:42:42.676Z,119.05
2024-03-05T05:45:13.211Z,110.60
2024-03-05T05:47:43.555Z,121.25
2024-03-05T05:50:20.021Z,118.53
2024-03-05T05:52:49.558Z,121.88
2024-03-05T05:55:20.765Z,121.47
2024-03-05T05:57:52.817Z,117.47
2024-03-05T06:00:26.020Z,116.88
2024-03-05T06:02:56.217Z,125.43
2024-03-05T06:05:32.653Z,112.55
2024-03-05T06:08:00.874Z,128.20
2024-03-05T06:10:28.749Z,135.60
2024-03-05T06:12:55.739Z,123.90
2024-03-05T06:15:22.234Z,110.90
2024-03-05T06:17:49.250Z,134.23
2024-03-05T06:20:15.980Z,108.10
2024-03-05T06:22:45.643Z,158.97
2024-03-05T06:25:17.008Z,126.00
2024-03-05T06:27:43.491Z,130.57
2024-03-05T06:30:16.474Z,115.63
2024-03-05T06:32:44.561Z,122.22
2024-03-05T06:35:12.202Z,112.73
2024-03-05T06:37:45.690Z,126.00
2024-03-05T06:40:13.990Z,109.78
2024-03-05T06:42:42.365Z,125.43
2024-03-05T06:45:15.962Z,122.80
2024-03-05T06:48:04.398Z,105.63
2024-03-05T06:50:38.399Z,105.40
2024-03-05T06:53:24.262Z,108.45
2024-03-05T06:56:09.143Z,98.95
2024-03-05T06:58:36.861Z,111.10
2024-03-05T07:01:09.362Z,105.23
2024-03-05T07:03:37.139Z,102.90
2024-03-05T07:06:11.276Z,104.10
2024-03-05T07:08:42.113Z,103.22
2024-03-05T07:11:10.784Z,104.53
2024-03-05T07:13:40.051Z,101.17
2024-03-05T07:16:10.455Z,110.55
2024-03-05T07:18:37.390Z,110.53
2024-03-05T07:21:04.897Z,115.63
2024-03-05T07:23:31.890Z,106.55
2024-03-05T07:25:59.194Z,108.07
2024-03-05T07:28:29.080Z,100.05
2024-03-05T07:30:55.561Z,101.03
2024-03-05T07:33:22.919Z,106.63
2024-03-05T07:35:49.661Z,97.70
2024-03-05T07:38:16.613Z,102.37
2024-03-05T07:40:43.843Z,99.50
2024-03-05T07:43:10.449Z,101.30
2024-03-05T07:45:36.917Z,100.88
2024-03-05T07:48:03.957Z,102.82
2024-03-05T07:50:30.694Z,104.93
2024-03-05T07:52:58.743Z,99.93
2024-03-05T07:55:31.977Z,110.15
2024-03-05T07:58:02.351Z,128.55
2024-03-05T08:00:28.901Z,114.25
2024-03-05T08:02:55.809Z,116.80
2024-03-05T08:05:23.430Z,132.05
2024-03-05T08:08:06.142Z,140.25
2024-03-05T08:10:35.289Z,131.90
2024-03-05T08:13:03.121Z,146.32
2024-03-05T08:15:29.647Z,138.00
2024-03-05T08:17:57.620Z,142.30
2024-03-05T08:20:27.015Z,135.27
2024-03-05T08:22:54.860Z,131.35
2024-03-05T08:25:22.313Z,138.40
2024-03-05T08:27:59.453Z,135.87
2024-03-05T08:30:32.325Z,140.60
2024-03-05T08:32:58.941Z,138.20
2024-03-05T08:35:30.463Z,151.85
2024-03-05T08:37:58.225Z,143.40
2024-03-05T08:40:25.315Z,150.20
2024-03-05T08:42:55.337Z,143.65
2024-03-05T08:45:23.733Z,154.82
2024-03-05T08:47:51.844Z,169.73
2024-03-05T08:50:18.769Z,160.27
2024-03-05T08:52:45.692Z,146.33
2024-03-05T08:55:14.153Z,151.88
2024-03-05T08:57:41.493Z,146.52
2024-03-05T09:00:17.397Z,130.23
2024-03-05T09:02:54.235Z,135.05
2024-03-05T09:05:21.148Z,133.60
2024-03-05T09:07:47.783Z,127.57
2024-03-05T09:10:18.724Z,119.80
2024-03-05T09:12:45.358Z,117.03
2024-03-05T09:15:13.340Z,116.75
2024-03-05T09:17:39.882Z,102.57
2024-03-05T09:20:15.868Z,104.93
2024-03-05T09:22:45.942Z,87.13
2024-03-05T09:25:14.073Z,98.60
2024-03-05T09:27:46.401Z,96.22
2024-03-05T09:30:16.175Z,92.00
2024-03-05T09:32:44.601Z,90.70
2024-03-05T09:35:14.039Z,95.63
2024-03-05T09:37:41.266Z,91.75
2024-03-05T09:40:08.322Z,92.30
2024-03-05T09:42:38.030Z,76.63
2024-03-05T09:45:07.615Z,83.43
2024-03-05T09:47:39.344Z,78.60
2024-03-05T09:50:08.772Z,80.32
2024-03-05T09:52:35.832Z,75.03
2024-03-05T09:55:03.130Z,83.03
2024-03-05T09:57:33.554Z,80.20
2024-03-05T10:00:00.035Z,73.60
2024-03-05T10:02:29.763Z,76.00
2024-03-05T10:04:58.861Z,65.35
2024-03-05T10:07:26.914Z,63.97
2024-03-05T10:10:12.317Z,65.20
2024-03-05T10:12:44.767Z,58.05
2024-03-05T10:15:18.789Z,56.72
2024-03-05T10:17:47.004Z,58.95
2024-03-05T10:20:34.302Z,60.20
2024-03-05T10:23:04.354Z,63.45
2024-03-05T10:25:34.018Z,62.15
2024-03-05T10:28:01.248Z,61.15
2024-03-05T10:30:35.393Z,50.75
2024-03-05T10:33:08.993Z,57.97
2024-03-05T10:35:37.873Z,57.35
2024-03-05T10:38:13.858Z,56.35
2024-03-05T10:40:45.380Z,53.60
2024-03-05T10:43:16.881Z,53.42
2024-03-05T10:45:45.783Z,52.47
2024-03-05T10:48:15.383Z,52.13
2024-03-05T10:50:44.949Z,56.78
2024-03-05T10:53:13.926Z,61.80
2024-03-05T10:55:44.270Z,59.95
2024-03-05T10:58:31.112Z,61.77
2024-03-05T11:00:59.127Z,56.53
2024-03-05T11:03:42.812Z,57.25
2024-03-05T11:06:10.436Z,59.28
2024-03-05T11:08:37.968Z,60.15
2024-03-05T11:11:08.569Z,60.93
2024-03-05T11:13:39.556Z,57.35
2024-03-05T11:16:07.689Z,57.53
2024-03-05T11:18:36.582Z,53.85
2024-03-05T11:21:10.563Z,50.63
2024-03-05T11:23:41.595Z,49.70
2024-03-05T11:26:09.253Z,51.95
2024-03-05T11:28:37.871Z,48.55
2024-03-05T11:31:21.824Z,50.83
2024-03-05T11:34:04.699Z,41.80
2024-03-05T11:36:34.991Z,36.57
2024-03-05T11:39:10.223Z,36.42
2024-03-05T11:41:43.144Z,39.53
2024-03-05T11:44:12.802Z,35.83
2024-03-05T11:46:49.796Z,37.80
2024-03-05T11:49:18.062Z,37.77
2024-03-05T11:51:46.293Z,38.80
2024-03-05T11:54:14.730Z,38.42
2024-03-05T11:56:44.444Z,39.83
2024-03-05T11:59:13.205Z,37.40
2024-03-05T12:01:42.441Z,37.93
2024-03-05T12:04:12.389Z,32.92
2024-03-05T12:06:40.637Z,34.13
2024-03-05T12:09:19.958Z,32.05
2024-03-05T12:12:07.015Z,31.48
2024-03-05T12:14:35.584Z,33.73
2024-03-05T12:17:05.168Z,32.60
2024-03-05T12:19:33.243Z,32.42
2024-03-05T12:22:01.106Z,36.28
2024-03-05T12:24:31.425Z,29.77
2024-03-05T12:26:59.317Z,29.93
2024-03-05T12:29:41.199Z,33.30
2024-03-05T12:32:09.978Z,33.28
2024-03-05T12:34:36.656Z,31.65
2024-03-05T12:37:05.339Z,33.60
2024-03-05T12:39:31.802Z,31.50
2024-03-05T12:42:05.710Z,31.52
2024-03-05T12:44:33.569Z,32.03
2024-03-05T12:47:28.396Z,29.58
2024-03-05T12:49:56.419Z,27.52
2024-03-05T12:52:24.336Z,28.07
2024-03-05T12:55:01.923Z,31.13
2024-03-05T12:57:30.397Z,29.88
2024-03-05T13:00:06.797Z,27.75
2024-03-05T13:02:33.745Z,30.60
2024-03-05T13:05:00.908Z,28.23
2024-03-05T13:07:28.039Z,28.50
2024-03-05T13:10:00.379Z,28.80
2024-03-05T13:12:27.768Z,27.23
2024-03-05T13:14:54.264Z,32.03
2024-03-05T13:17:20.723Z,27.80
2024-03-05T13:19:47.390Z,28.88
2024-03-05T13:22:14.545Z,25.83
2024-03-05T13:24:41.472Z,29.40
2024-03-05T13:27:08.309Z,26.48
2024-03-05T13:29:36.659Z,30.37
2024-03-05T13:32:03.353Z,30.35
2024-03-05T13:34:29.855Z,31.83
2024-03-05T13:36:56.604Z,27.40
2024-03-05T13:39:23.940Z,28.70
2024-03-05T13:41:54.463Z,27.50
2024-03-05T13:44:23.544Z,30.80
2024-03-05T13:46:53.970Z,31.48
2024-03-05T13:49:22.061Z,29.85
2024-03-05T13:51:49.343Z,30.73
2024-03-05T13:54:15.964Z,32.53
2024-03-05T13:56:44.210Z,34.53
2024-03-05T13:59:13.738Z,31.38
2024-03-05T14:01:42.375Z,31.02
2024-03-05T14:04:11.299Z,33.03
2024-03-05T14:06:42.236Z,33.80
2024-03-05T14:09:10.444Z,37.58
2024-03-05T14:11:37.755Z,38.05
2024-03-05T14:14:04.860Z,36.67
2024-03-05T14:16:32.532Z,38.15
2024-03-05T14:18:59.883Z,38.73
2024-03-05T14:21:26.967Z,38.92
2024-03-05T14:23:53.470Z,38.05
2024-03-05T14:26:21.014Z,37.47
2024-03-05T14:28:47.565Z,39.58
2024-03-05T14:31:14.112Z,42.77
2024-03-05T14:33:40.827Z,39.10
2024-03-05T14:36:07.834Z,41.47
2024-03-05T14:38:35.090Z,46.50
2024-03-05T14:41:01.758Z,45.17
2024-03-05T14:43:28.585Z,44.60
2024-03-05T14:45:55.722Z,44.67
2024-03-05T14:48:22.392Z,47.08
2024-03-05T14:50:49.502Z,47.60
2024-03-05T14:53:16.041Z,46.40
2024-03-05T14:55:42.692Z,45.10
2024-03-05T14:58:09.206Z,47.95
2024-03-05T15:00:37.428Z,50.92
2024-03-05T15:03:04.176Z,48.85
2024-03-05T15:05:30.996Z,48.38
2024-03-05T15:07:57.816Z,51.83
2024-03-05T15:10:29.498Z,52.55
2024-03-05T15:12:56.797Z,53.60
2024-03-05T15:15:24.842Z,54.88
2024-03-05T15:17:51.722Z,52.38
2024-03-05T15:20:19.091Z,54.10
2024-03-05T15:22:51.526Z,55.85
2024-03-05T15:25:21.230Z,58.67
2024-03-05T15:27:53.231Z,60.35
2024-03-05T15:30:30.377Z,57.75
2024-03-05T15:32:58.866Z,59.57
2024-03-05T15:35:29.291Z,60.25
2024-03-05T15:37:59.845Z,62.42
2024-03-05T15:40:27.400Z,59.67
2024-03-05T15:42:56.246Z,59.83
2024-03-05T15:45:28.510Z,55.77
2024-03-05T15:47:55.271Z,58.00
2024-03-05T15:50:30.424Z,56.45
2024-03-05T15:53:00.772Z,61.58
2024-03-05T15:55:31.174Z,55.08
2024-03-05T15:58:02.075Z,62.40
2024-03-05T16:00:36.989Z,60.53
2024-03-05T16:03:05.839Z,56.55
2024-03-05T16:05:46.311Z,48.17
2024-03-05T16:08:21.661Z,56.20
2024-03-05T16:10:49.582Z,55.20
2024-03-05T16:13:17.293Z,51.55
2024-03-05T16:15:46.780Z,49.50
2024-03-05T16:18:16.681Z,55.65
2024-03-05T16:20:43.286Z,55.25
2024-03-05T16:23:11.123Z,50.97
2024-03-05T16:25:41.885Z,46.72
2024-03-05T16:28:14.939Z,53.47
2024-03-05T16:30:43.361Z,57.65
2024-03-05T16:33:10.499Z,54.05
2024-03-05T16:35:37.619Z,51.17
2024-03-05T16:38:05.148Z,53.97
2024-03-05T16:40:36.741Z,56.30
2024-03-05T16:43:05.793Z,50.92
2024-03-05T16:45:32.721Z,55.55
2024-03-05T16:48:01.062Z,54.83
2024-03-05T16:50:29.114Z,53.17
2024-03-05T16:52:59.942Z,53.08
2024-03-05T16:55:28.460Z,54.10
2024-03-05T16:57:57.699Z,57.15
2024-03-05T17:00:28.910Z,46.63
2024-03-05T17:02:56.828Z,47.42
2024-03-05T17:05:24.854Z,50.70
2024-03-05T17:07:59.746Z,49.60
2024-03-05T17:10:28.117Z,49.30
2024-03-05T17:12:56.942Z,50.93
2024-03-05T17:15:26.797Z,48.25
2024-03-05T17:18:00.126Z,49.80
2024-03-05T17:20:32.420Z,49.10
2024-03-05T17:22:59.164Z,43.97
2024-03-05T17:25:28.685Z,49.93
2024-03-05T17:27:55.281Z,45.38
2024-03-05T17:30:21.917Z,43.47
2024-03-05T17:32:48.886Z,45.92
2024-03-05T17:35:18.604Z,44.78
2024-03-05T17:37:46.219Z,47.27
2024-03-05T17:40:15.677Z,45.33
2024-03-05T17:42:43.518Z,48.53
2024-03-05T17:45:11.631Z,48.70
2024-03-05T17:47:40.102Z,45.13
2024-03-05T17:50:13.204Z,38.90
2024-03-05T17:52:40.771Z,44.45
2024-03-05T17:55:08.965Z,42.83
2024-03-05T17:57:47.829Z,42.58
2024-03-05T18:00:27.509Z,41.72
2024-03-05T18:02:59.858Z,43.20
2024-03-05T18:05:27.907Z,41.25
2024-03-05T18:07:55.502Z,38.20
2024-03-05T18:10:27.084Z,44.92
2024-03-05T18:12:53.862Z,43.42
2024-03-05T18:15:21.584Z,38.67
2024-03-05T18:17:49.990Z,39.38
2024-03-05T18:20:17.722Z,39.80
2024-03-05T18:22:45.718Z,38.80
2024-03-05T18:25:20.867Z,36.85
2024-03-05T18:27:49.692Z,38.73
2024-03-05T18:30:19.960Z,39.17
2024-03-05T18:32:49.662Z,37.60
2024-03-05T18:35:18.700Z,36.97
2024-03-05T18:37:46.849Z,32.10
2024-03-05T18:40:14.606Z,36.33
2024-03-05T18:42:46.685Z,34.70
2024-03-05T18:45:16.712Z,30.00
2024-03-05T18:47:54.488Z,32.40
2024-03-05T18:50:29.024Z,30.30
2024-03-05T18:52:58.221Z,27.73
2024-03-05T18:55:28.378Z,31.83
2024-03-05T18:57:54.971Z,33.08
2024-03-05T19:00:21.558Z,30.50
2024-03-05T19:02:51.754Z,30.45
2024-03-05T19:05:19.973Z,35.17
2024-03-05T19:07:48.789Z,32.55
2024-03-05T19:10:19.652Z,38.58
2024-03-05T19:12:47.615Z,31.58
2024-03-05T19:15:14.897Z,31.75
2024-03-05T19:17:42.207Z,33.00
2024-03-05T19:20:11.089Z,34.75
2024-03-05T19:22:39.607Z,29.83
2024-03-05T19:25:11.617Z,28.85
2024-03-05T19:27:42.737Z,30.33
2024-03-05T19:30:17.078Z,29.70
2024-03-05T19:32:44.341Z,27.88
2024-03-05T19:35:12.319Z,29.92
2024-03-05T19:37:41.825Z,29.63
2024-03-05T19:40:09.387Z,28.42
2024-03-05T19:42:35.924Z,28.17
2024-03-05T19:45:02.523Z,26.85
2024-03-05T19:47:33.808Z,27.02
2024-03-05T19:50:06.139Z,28.60
2024-03-05T19:52:34.204Z,30.02
2024-03-05T19:55:00.747Z,29.00
2024-03-05T19:57:27.284Z,27.83
2024-03-05T19:59:56.370Z,28.33
2024-03-05T20:02:24.077Z,31.65
2024-03-05T20:04:50.973Z,28.48
2024-03-05T20:07:17.479Z,29.13
2024-03-05T20:09:45.456Z,26.25
2024-03-05T20:12:13.038Z,29.67
2024-03-05T20:14:39.545Z,27.45
2024-03-05T20:17:08.481Z,28.05
2024-03-05T20:19:40.294Z,28.27
2024-03-05T20:22:08.620Z,27.55
2024-03-05T20:24:36.058Z,26.55
2024-03-05T20:27:03.632Z,27.63
2024-03-05T20:29:31.013Z,25.08
2024-03-05T20:32:01.849Z,30.57
2024-03-05T20:34:28.595Z,28.05
2024-03-05T20:36:55.501Z,26.55
2024-03-05T20:39:22.066Z,26.58
2024-03-05T20:41:48.643Z,25.63
2024-03-05T20:44:15.838Z,23.17
2024-03-05T20:46:43.072Z,21.90
2024-03-05T20:49:15.324Z,22.40
2024-03-05T20:51:41.810Z,22.30
2024-03-05T20:54:08.823Z,21.60
2024-03-05T20:56:35.380Z,21.07
2024-03-05T20:59:01.926Z,23.80
2024-03-05T21:01:30.482Z,20.95
2024-03-05T21:03:57.148Z,19.23
2024-03-05T21:06:23.671Z,18.38
2024-03-05T21:08:50.219Z,19.93
2024-03-05T21:11:17.679Z,20.30
2024-03-05T21:13:44.230Z,20.13
2024-03-05T21:16:11.495Z,19.60
2024-03-05T21:18:38.192Z,18.10
2024-03-05T21:21:05.858Z,21.47
2024-03-05T21:23:34.822Z,17.48
2024-03-05T21:26:14.053Z,17.95
2024-03-05T21:28:51.936Z,22.75
2024-03-05T21:31:19.082Z,22.05
2024-03-05T21:33:45.816Z,19.70
2024-03-05T21:36:12.409Z,18.65
2024-03-05T21:38:39.000Z,19.75
2024-03-05T21:41:09.777Z,15.93
2024-03-05T21:43:36.422Z,20.38
2024-03-05T21:46:05.125Z,19.07
2024-03-05T21:48:31.845Z,15.27
2024-03-05T21:51:06.289Z,19.38
2024-03-05T21:53:36.902Z,17.98
2024-03-05T21:56:03.717Z,20.63
2024-03-05T21:58:30.333Z,16.80
2024-03-05T22:00:56.922Z,15.60
2024-03-05T22:03:23.444Z,17.15
2024-03-05T22:05:49.995Z,17.00
2024-03-05T22:08:16.684Z,17.63
2024-03-05T22:10:43.202Z,19.67
2024-03-05T22:13:09.750Z,18.20
2024-03-05T22:15:36.272Z,17.67
2024-03-05T22:18:02.908Z,16.23
2024-03-05T22:20:29.410Z,18.90
2024-03-05T22:22:55.927Z,18.37
2024-03-05T22:25:22.539Z,17.27
2024-03-05T22:27:49.092Z,15.02
2024-03-05T22:30:15.650Z,15.75
2024-03-05T22:32:42.149Z,23.25
2024-03-05T22:35:11.299Z,16.47
2024-03-05T22:37:41.325Z,17.00
2024-03-05T22:40:09.226Z,17.75
2024-03-05T22:42:36.053Z,16.50
2024-03-05T22:45:04.062Z,14.77
2024-03-05T22:47:30.721Z,22.33
2024-03-05T22:49:58.058Z,18.17
2024-03-05T22:52:24.760Z,15.35
2024-03-05T22:54:51.312Z,16.70
2024-03-05T22:57:17.882Z,22.33
2024-03-05T22:59:44.376Z,19.83
2024-03-05T23:02:10.852Z,16.83
2024-03-05T23:04:37.355Z,15.82
2024-03-05T23:07:03.891Z,18.63
2024-03-05T23:09:30.365Z,19.88
2024-03-05T23:11:57.046Z,18.17
2024-03-05T23:14:23.590Z,16.73
2024-03-05T23:16:51.542Z,15.68
2024-03-05T23:19:18.839Z,19.33
2024-03-05T23:21:45.356Z,17.65
2024-03-05T23:24:11.933Z,16.10
2024-03-05T23:26:38.454Z,16.15
2024-03-05T23:29:05.166Z,18.58
2024-03-05T23:31:31.734Z,19.33
2024-03-05T23:33:58.276Z,17.17
2024-03-05T23:36:24.751Z,20.20
2024-03-05T23:38:51.355Z,23.40
2024-03-05T23:41:28.437Z,17.20
2024-03-05T23:43:58.733Z,16.40
2024-03-05T23:46:25.216Z,19.95
2024-03-05T23:48:51.678Z,17.40
2024-03-05T23:51:18.656Z,18.60
2024-03-05T23:53:45.207Z,19.42
2024-03-05T23:56:12.181Z,17.50
2024-03-05T23:58:41.588Z,16.77
